sensor_id;sensor_type;location;lat;lon;timestamp;pressure;altitude;pressure_sealevel;temperature
68446;BMP280;35789;48.414;12.768;2023-10-09T00:00:00;97630.0;;;
68446;BMP280;35789;48.414;12.768;2023-10-09T00:05:00;97620.0;;;
68446;BMP280;35789;48.414;12.768;2023-10-09T00:10:00;97620.0;;;
68446;BMP280;35789;48.414;12.768;2023-10-09T00:15:00;97610.0;;;
68446;BMP280;35789;48.414;12.768;2023-10-09T00:20:00;97600.0;;;
68446;BMP280;35789;48.414;12.768;2023-10-09T00:25:00;97600.0;;;
68446;BMP280;35789;48.414;12.768;2023-10-09T00:30:00;97600.0;;;
68446;BMP280;35789;48.414;12.768;2023-10-09T00:35:00;97590.0;;;
68446;BMP280;35789;48.414;12.768;2023-10-09T00:40:00;97590.0;;;
68446;BMP280;35789;48.414;12.768;2023-10-09T00:45:00;97590.0;;;
68446;BMP280;35789;48.414;12.768;2023-10-09T00:50:03;97590.0;;;
68446;BMP280;35789;48.414;12.768;2023-10-09T00:55:00;97590.0;;;
68446;BMP280;35789;48.414;12.768;2023-10-09T01:00:00;97590.0;;;
68446;BMP280;35789;48.414;12.768;2023-10-09T01:05:02;97590.0;;;
68446;BMP280;35789;48.414;12.768;2023-10-09T01:10:00;97570.0;;;
68446;BMP280;35789;48.414;12.768;2023-10-09T01:15:01;97580.0;;;
68446;BMP280;35789;48.414;12.768;2023-10-09T01:20:00;97570.0;;;
68446;BMP280;35789;48.414;12.768;2023-10-09T01:25:00;97570.0;;;
68446;BMP280;35789;48.414;12.768;2023-10-09T01:30:00;97560.0;;;
68446;BMP280;35789;48.414;12.768;2023-10-09T01:35:00;97560.0;;;
68446;BMP280;35789;48.414;12.768;2023-10-09T01:40:00;97560.0;;;
68446;BMP280;35789;48.414;12.768;2023-10-09T01:45:00;97560.0;;;
68446;BMP280;35789;48.414;12.768;2023-10-09T01:50:00;97560.0;;;
68446;BMP280;35789;48.414;12.768;2023-10-09T01:55:00;97540.0;;;
68446;BMP280;35789;48.414;12.768;2023-10-09T02:00:00;97530.0;;;
68446;BMP280;35789;48.414;12.768;2023-10-09T02:05:03;97510.0;;;
68446;BMP280;35789;48.414;12.768;2023-10-09T02:10:00;97510.0;;;
68446;BMP280;35789;48.414;12.768;2023-10-09T02:15:00;97500.0;;;
68446;BMP280;35789;48.414;12.768;2023-10-09T02:20:00;97500.0;;;
68446;BMP280;35789;48.414;12.768;2023-10-09T02:25:01;97500.0;;;
68446;BMP280;35789;48.414;12.768;2023-10-09T02:30:00;97490.0;;;
68446;BMP280;35789;48.414;12.768;2023-10-09T02:35:01;97480.0;;;
68446;BMP280;35789;48.414;12.768;2023-10-09T02:40:00;97480.0;;;
68446;BMP280;35789;48.414;12.768;2023-10-09T02:45:00;97480.0;;;
68446;BMP280;35789;48.414;12.768;2023-10-09T02:50:00;97480.0;;;
68446;BMP280;35789;48.414;12.768;2023-10-09T02:55:00;97470.0;;;
68446;BMP280;35789;48.414;12.768;2023-10-09T03:00:00;97460.0;;;
68446;BMP280;35789;48.414;12.768;2023-10-09T03:05:00;97460.0;;;
68446;BMP280;35789;48.414;12.768;2023-10-09T03:10:00;97450.0;;;
68446;BMP280;35789;48.414;12.768;2023-10-09T03:15:00;97450.0;;;
68446;BMP280;35789;48.414;12.768;2023-10-09T03:20:03;97450.0;;;
68446;BMP280;35789;48.414;12.768;2023-10-09T03:25:00;97450.0;;;
68446;BMP280;35789;48.414;12.768;2023-10-09T03:30:00;97440.0;;;
68446;BMP280;35789;48.414;12.768;2023-10-09T03:35:00;97430.0;;;
68446;BMP280;35789;48.414;12.768;2023-10-09T03:40:00;97430.0;;;
68446;BMP280;35789;48.414;12.768;2023-10-09T03:45:00;97420.0;;;
68446;BMP280;35789;48.414;12.768;2023-10-09T03:50:00;97420.0;;;
68446;BMP280;35789;48.414;12.768;2023-10-09T03:55:00;97420.0;;;
68446;BMP280;35789;48.414;12.768;2023-10-09T04:00:00;97410.0;;;
68446;BMP280;35789;48.414;12.768;2023-10-09T04:05:00;97410.0;;;
68446;BMP280;35789;48.414;12.768;2023-10-09T04:10:00;97410.0;;;
68446;BMP280;35789;48.414;12.768;2023-10-09T04:15:00;97410.0;;;
68446;BMP280;35789;48.414;12.768;2023-10-09T04:20:02;97410.0;;;
68446;BMP280;35789;48.414;12.768;2023-10-09T04:25:00;97410.0;;;
68446;BMP280;35789;48.414;12.768;2023-10-09T04:30:00;97410.0;;;
68446;BMP280;35789;48.414;12.768;2023-10-09T04:35:01;97410.0;;;
68446;BMP280;35789;48.414;12.768;2023-10-09T04:40:00;97410.0;;;
68446;BMP280;35789;48.414;12.768;2023-10-09T04:45:00;97410.0;;;
68446;BMP280;35789;48.414;12.768;2023-10-09T04:50:00;97410.0;;;
68446;BMP280;35789;48.414;12.768;2023-10-09T04:55:01;97410.0;;;
68446;BMP280;35789;48.414;12.768;2023-10-09T05:00:00;97410.0;;;
68446;BMP280;35789;48.414;12.768;2023-10-09T05:05:00;97410.0;;;
68446;BMP280;35789;48.414;12.768;2023-10-09T05:10:00;97410.0;;;
68446;BMP280;35789;48.414;12.768;2023-10-09T05:15:00;97410.0;;;
68446;BMP280;35789;48.414;12.768;2023-10-09T05:20:00;97410.0;;;
68446;BMP280;35789;48.414;12.768;2023-10-09T05:25:00;97410.0;;;
68446;BMP280;35789;48.414;12.768;2023-10-09T05:30:00;97400.0;;;
68446;BMP280;35789;48.414;12.768;2023-10-09T05:35:00;97390.0;;;
68446;BMP280;35789;48.414;12.768;2023-10-09T05:40:02;97390.0;;;
68446;BMP280;35789;48.414;12.768;2023-10-09T05:45:00;97380.0;;;
68446;BMP280;35789;48.414;12.768;2023-10-09T05:50:00;97380.0;;;
68446;BMP280;35789;48.414;12.768;2023-10-09T05:55:00;97380.0;;;
68446;BMP280;35789;48.414;12.768;2023-10-09T06:00:00;97380.0;;;
68446;BMP280;35789;48.414;12.768;2023-10-09T06:05:00;97380.0;;;
68446;BMP280;35789;48.414;12.768;2023-10-09T06:10:00;97390.0;;;
68446;BMP280;35789;48.414;12.768;2023-10-09T06:15:01;97380.0;;;
68446;BMP280;35789;48.414;12.768;2023-10-09T06:20:00;97380.0;;;
68446;BMP280;35789;48.414;12.768;2023-10-09T06:25:00;97380.0;;;
68446;BMP280;35789;48.414;12.768;2023-10-09T06:30:01;97380.0;;;
68446;BMP280;35789;48.414;12.768;2023-10-09T06:35:02;97380.0;;;
68446;BMP280;35789;48.414;12.768;2023-10-09T06:40:00;97370.0;;;
68446;BMP280;35789;48.414;12.768;2023-10-09T06:45:00;97380.0;;;
68446;BMP280;35789;48.414;12.768;2023-10-09T06:50:00;97390.0;;;
68446;BMP280;35789;48.414;12.768;2023-10-09T06:55:00;97380.0;;;
68446;BMP280;35789;48.414;12.768;2023-10-09T07:00:00;97390.0;;;
68446;BMP280;35789;48.414;12.768;2023-10-09T07:05:00;97400.0;;;
68446;BMP280;35789;48.414;12.768;2023-10-09T07:10:00;97390.0;;;
68446;BMP280;35789;48.414;12.768;2023-10-09T07:15:00;97400.0;;;
68446;BMP280;35789;48.414;12.768;2023-10-09T07:20:00;97410.0;;;
68446;BMP280;35789;48.414;12.768;2023-10-09T07:25:00;97410.0;;;
68446;BMP280;35789;48.414;12.768;2023-10-09T07:30:00;97420.0;;;
68446;BMP280;35789;48.414;12.768;2023-10-09T07:35:00;97420.0;;;
68446;BMP280;35789;48.414;12.768;2023-10-09T07:40:02;97420.0;;;
68446;BMP280;35789;48.414;12.768;2023-10-09T07:45:01;97420.0;;;
68446;BMP280;35789;48.414;12.768;2023-10-09T07:50:00;97420.0;;;
68446;BMP280;35789;48.414;12.768;2023-10-09T07:55:01;97420.0;;;
68446;BMP280;35789;48.414;12.768;2023-10-09T08:00:00;97420.0;;;
68446;BMP280;35789;48.414;12.768;2023-10-09T08:05:02;97410.0;;;
68446;BMP280;35789;48.414;12.768;2023-10-09T08:10:00;97410.0;;;
68446;BMP280;35789;48.414;12.768;2023-10-09T08:15:01;97420.0;;;
68446;BMP280;35789;48.414;12.768;2023-10-09T08:20:00;97430.0;;;
68446;BMP280;35789;48.414;12.768;2023-10-09T08:25:00;97420.0;;;
68446;BMP280;35789;48.414;12.768;2023-10-09T08:30:03;97420.0;;;
68446;BMP280;35789;48.414;12.768;2023-10-09T08:35:00;97420.0;;;
68446;BMP280;35789;48.414;12.768;2023-10-09T08:40:00;97410.0;;;
68446;BMP280;35789;48.414;12.768;2023-10-09T08:45:03;97410.0;;;
68446;BMP280;35789;48.414;12.768;2023-10-09T08:50:00;97420.0;;;
68446;BMP280;35789;48.414;12.768;2023-10-09T08:55:00;97420.0;;;
68446;BMP280;35789;48.414;12.768;2023-10-09T09:00:00;97420.0;;;
68446;BMP280;35789;48.414;12.768;2023-10-09T09:05:16;97420.0;;;
68446;BMP280;35789;48.414;12.768;2023-10-09T09:10:01;97410.0;;;
68446;BMP280;35789;48.414;12.768;2023-10-09T09:15:00;97420.0;;;
68446;BMP280;35789;48.414;12.768;2023-10-09T09:20:19;97430.0;;;
68446;BMP280;35789;48.414;12.768;2023-10-09T09:25:00;97430.0;;;
68446;BMP280;35789;48.414;12.768;2023-10-09T09:30:00;97440.0;;;
68446;BMP280;35789;48.414;12.768;2023-10-09T09:35:02;97430.0;;;
68446;BMP280;35789;48.414;12.768;2023-10-09T09:40:03;97430.0;;;
68446;BMP280;35789;48.414;12.768;2023-10-09T09:45:01;97430.0;;;
68446;BMP280;35789;48.414;12.768;2023-10-09T09:50:02;97440.0;;;
68446;BMP280;35789;48.414;12.768;2023-10-09T09:55:02;97450.0;;;
68446;BMP280;35789;48.414;12.768;2023-10-09T10:00:01;97440.0;;;
68446;BMP280;35789;48.414;12.768;2023-10-09T10:05:06;97450.0;;;
68446;BMP280;35789;48.414;12.768;2023-10-09T10:10:00;97450.0;;;
68446;BMP280;35789;48.414;12.768;2023-10-09T10:15:00;97440.0;;;
68446;BMP280;35789;48.414;12.768;2023-10-09T10:20:03;97450.0;;;
68446;BMP280;35789;48.414;12.768;2023-10-09T10:25:00;97440.0;;;
68446;BMP280;35789;48.414;12.768;2023-10-09T10:30:29;97440.0;;;
68446;BMP280;35789;48.414;12.768;2023-10-09T10:35:00;97440.0;;;
68446;BMP280;35789;48.414;12.768;2023-10-09T10:40:00;97450.0;;;
68446;BMP280;35789;48.414;12.768;2023-10-09T10:45:01;97450.0;;;
68446;BMP280;35789;48.414;12.768;2023-10-09T10:50:02;97450.0;;;
68446;BMP280;35789;48.414;12.768;2023-10-09T10:55:09;97440.0;;;
68446;BMP280;35789;48.414;12.768;2023-10-09T11:00:00;97440.0;;;
68446;BMP280;35789;48.414;12.768;2023-10-09T11:05:00;97440.0;;;
68446;BMP280;35789;48.414;12.768;2023-10-09T11:10:00;97440.0;;;
68446;BMP280;35789;48.414;12.768;2023-10-09T11:15:00;97440.0;;;
68446;BMP280;35789;48.414;12.768;2023-10-09T11:20:02;97440.0;;;
68446;BMP280;35789;48.414;12.768;2023-10-09T11:25:01;97430.0;;;
68446;BMP280;35789;48.414;12.768;2023-10-09T11:30:00;97430.0;;;
68446;BMP280;35789;48.414;12.768;2023-10-09T11:35:14;97420.0;;;
68446;BMP280;35789;48.414;12.768;2023-10-09T11:40:00;97410.0;;;
68446;BMP280;35789;48.414;12.768;2023-10-09T11:45:00;97420.0;;;
68446;BMP280;35789;48.414;12.768;2023-10-09T11:50:01;97420.0;;;
68446;BMP280;35789;48.414;12.768;2023-10-09T11:55:01;97380.0;;;
68446;BMP280;35789;48.414;12.768;2023-10-09T12:00:02;97420.0;;;
68446;BMP280;35789;48.414;12.768;2023-10-09T12:05:00;97420.0;;;
68446;BMP280;35789;48.414;12.768;2023-10-09T12:10:00;97420.0;;;
68446;BMP280;35789;48.414;12.768;2023-10-09T12:15:00;97410.0;;;
68446;BMP280;35789;48.414;12.768;2023-10-09T12:20:00;97430.0;;;
68446;BMP280;35789;48.414;12.768;2023-10-09T12:25:00;97410.0;;;
68446;BMP280;35789;48.414;12.768;2023-10-09T12:30:00;97480.0;;;
68446;BMP280;35789;48.414;12.768;2023-10-09T12:35:00;97310.0;;;
68446;BMP280;35789;48.414;12.768;2023-10-09T12:40:00;97320.0;;;
68446;BMP280;35789;48.414;12.768;2023-10-09T12:45:00;97380.0;;;
68446;BMP280;35789;48.414;12.768;2023-10-09T12:50:00;97350.0;;;
68446;BMP280;35789;48.414;12.768;2023-10-09T12:55:00;97410.0;;;
68446;BMP280;35789;48.414;12.768;2023-10-09T13:00:00;97380.0;;;
68446;BMP280;35789;48.414;12.768;2023-10-09T13:05:00;97380.0;;;
68446;BMP280;35789;48.414;12.768;2023-10-09T13:10:00;97400.0;;;
68446;BMP280;35789;48.414;12.768;2023-10-09T13:15:00;97370.0;;;
68446;BMP280;35789;48.414;12.768;2023-10-09T13:20:00;97380.0;;;
68446;BMP280;35789;48.414;12.768;2023-10-09T13:25:00;97380.0;;;
68446;BMP280;35789;48.414;12.768;2023-10-09T13:30:00;97390.0;;;
68446;BMP280;35789;48.414;12.768;2023-10-09T13:35:00;97400.0;;;
68446;BMP280;35789;48.414;12.768;2023-10-09T13:40:00;97410.0;;;
68446;BMP280;35789;48.414;12.768;2023-10-09T13:45:02;97410.0;;;
68446;BMP280;35789;48.414;12.768;2023-10-09T13:50:00;97410.0;;;
68446;BMP280;35789;48.414;12.768;2023-10-09T13:55:00;97430.0;;;
68446;BMP280;35789;48.414;12.768;2023-10-09T14:00:00;97440.0;;;
68446;BMP280;35789;48.414;12.768;2023-10-09T14:05:00;97470.0;;;
68446;BMP280;35789;48.414;12.768;2023-10-09T14:10:00;97470.0;;;
68446;BMP280;35789;48.414;12.768;2023-10-09T14:15:00;97460.0;;;
68446;BMP280;35789;48.414;12.768;2023-10-09T14:20:00;97350.0;;;
68446;BMP280;35789;48.414;12.768;2023-10-09T14:25:00;97360.0;;;
68446;BMP280;35789;48.414;12.768;2023-10-09T14:30:00;97380.0;;;
68446;BMP280;35789;48.414;12.768;2023-10-09T14:35:00;97360.0;;;
68446;BMP280;35789;48.414;12.768;2023-10-09T14:40:00;97360.0;;;
68446;BMP280;35789;48.414;12.768;2023-10-09T14:45:00;97350.0;;;
68446;BMP280;35789;48.414;12.768;2023-10-09T14:50:00;97360.0;;;
68446;BMP280;35789;48.414;12.768;2023-10-09T14:55:00;97370.0;;;
68446;BMP280;35789;48.414;12.768;2023-10-09T15:00:00;97370.0;;;
68446;BMP280;35789;48.414;12.768;2023-10-09T15:05:00;97360.0;;;
68446;BMP280;35789;48.414;12.768;2023-10-09T15:10:00;97350.0;;;
68446;BMP280;35789;48.414;12.768;2023-10-09T15:15:02;97340.0;;;
68446;BMP280;35789;48.414;12.768;2023-10-09T15:20:00;97330.0;;;
68446;BMP280;35789;48.414;12.768;2023-10-09T15:25:00;97330.0;;;
68446;BMP280;35789;48.414;12.768;2023-10-09T15:30:00;97320.0;;;
68446;BMP280;35789;48.414;12.768;2023-10-09T15:35:00;97320.0;;;
68446;BMP280;35789;48.414;12.768;2023-10-09T15:40:00;97320.0;;;
68446;BMP280;35789;48.414;12.768;2023-10-09T15:45:00;97320.0;;;
68446;BMP280;35789;48.414;12.768;2023-10-09T15:50:00;97330.0;;;
68446;BMP280;35789;48.414;12.768;2023-10-09T15:55:00;97320.0;;;
68446;BMP280;35789;48.414;12.768;2023-10-09T16:00:00;97320.0;;;
68446;BMP280;35789;48.414;12.768;2023-10-09T16:05:00;97320.0;;;
68446;BMP280;35789;48.414;12.768;2023-10-09T16:10:00;97320.0;;;
68446;BMP280;35789;48.414;12.768;2023-10-09T16:15:00;97330.0;;;
68446;BMP280;35789;48.414;12.768;2023-10-09T16:25:01;97330.0;;;
68446;BMP280;35789;48.414;12.768;2023-10-09T16:30:00;97320.0;;;
68446;BMP280;35789;48.414;12.768;2023-10-09T16:35:00;97310.0;;;
68446;BMP280;35789;48.414;12.768;2023-10-09T16:40:00;97320.0;;;
68446;BMP280;35789;48.414;12.768;2023-10-09T16:45:00;97320.0;;;
68446;BMP280;35789;48.414;12.768;2023-10-09T16:50:00;97320.0;;;
68446;BMP280;35789;48.414;12.768;2023-10-09T17:00:00;97330.0;;;
68446;BMP280;35789;48.414;12.768;2023-10-09T17:05:00;97320.0;;;
68446;BMP280;35789;48.414;12.768;2023-10-09T17:10:00;97320.0;;;
68446;BMP280;35789;48.414;12.768;2023-10-09T17:15:00;97310.0;;;
68446;BMP280;35789;48.414;12.768;2023-10-09T17:20:00;97320.0;;;
68446;BMP280;35789;48.414;12.768;2023-10-09T17:25:00;97320.0;;;
68446;BMP280;35789;48.414;12.768;2023-10-09T17:30:00;97330.0;;;
68446;BMP280;35789;48.414;12.768;2023-10-09T17:35:01;97320.0;;;
68446;BMP280;35789;48.414;12.768;2023-10-09T17:40:00;97330.0;;;
68446;BMP280;35789;48.414;12.768;2023-10-09T17:45:01;97320.0;;;
68446;BMP280;35789;48.414;12.768;2023-10-09T17:50:02;97320.0;;;
68446;BMP280;35789;48.414;12.768;2023-10-09T17:55:01;97320.0;;;
68446;BMP280;35789;48.414;12.768;2023-10-09T18:00:00;97310.0;;;
68446;BMP280;35789;48.414;12.768;2023-10-09T18:05:00;97310.0;;;
68446;BMP280;35789;48.414;12.768;2023-10-09T18:10:00;97310.0;;;
68446;BMP280;35789;48.414;12.768;2023-10-09T18:15:00;97310.0;;;
68446;BMP280;35789;48.414;12.768;2023-10-09T18:20:01;97310.0;;;
68446;BMP280;35789;48.414;12.768;2023-10-09T18:25:00;97300.0;;;
68446;BMP280;35789;48.414;12.768;2023-10-09T18:30:00;97310.0;;;
68446;BMP280;35789;48.414;12.768;2023-10-09T18:35:00;97310.0;;;
68446;BMP280;35789;48.414;12.768;2023-10-09T18:40:00;97310.0;;;
68446;BMP280;35789;48.414;12.768;2023-10-09T18:45:00;97300.0;;;
68446;BMP280;35789;48.414;12.768;2023-10-09T18:50:00;97300.0;;;
68446;BMP280;35789;48.414;12.768;2023-10-09T18:55:00;97290.0;;;
68446;BMP280;35789;48.414;12.768;2023-10-09T19:00:00;97300.0;;;
68446;BMP280;35789;48.414;12.768;2023-10-09T19:05:00;97310.0;;;
68446;BMP280;35789;48.414;12.768;2023-10-09T19:10:01;97310.0;;;
68446;BMP280;35789;48.414;12.768;2023-10-09T19:15:00;97320.0;;;
68446;BMP280;35789;48.414;12.768;2023-10-09T19:20:00;97330.0;;;
68446;BMP280;35789;48.414;12.768;2023-10-09T19:25:00;97330.0;;;
68446;BMP280;35789;48.414;12.768;2023-10-09T19:30:00;97330.0;;;
68446;BMP280;35789;48.414;12.768;2023-10-09T19:35:00;97340.0;;;
68446;BMP280;35789;48.414;12.768;2023-10-09T19:40:00;97340.0;;;
68446;BMP280;35789;48.414;12.768;2023-10-09T19:45:00;97340.0;;;
68446;BMP280;35789;48.414;12.768;2023-10-09T19:50:01;97330.0;;;
68446;BMP280;35789;48.414;12.768;2023-10-09T19:55:00;97330.0;;;
68446;BMP280;35789;48.414;12.768;2023-10-09T20:00:00;97330.0;;;
68446;BMP280;35789;48.414;12.768;2023-10-09T20:05:00;97340.0;;;
68446;BMP280;35789;48.414;12.768;2023-10-09T20:10:00;97340.0;;;
68446;BMP280;35789;48.414;12.768;2023-10-09T20:15:01;97350.0;;;
68446;BMP280;35789;48.414;12.768;2023-10-09T20:20:00;97350.0;;;
68446;BMP280;35789;48.414;12.768;2023-10-09T20:25:00;97360.0;;;
68446;BMP280;35789;48.414;12.768;2023-10-09T20:30:00;97370.0;;;
68446;BMP280;35789;48.414;12.768;2023-10-09T20:35:00;97370.0;;;
68446;BMP280;35789;48.414;12.768;2023-10-09T20:40:00;97370.0;;;
68446;BMP280;35789;48.414;12.768;2023-10-09T20:45:00;97380.0;;;
68446;BMP280;35789;48.414;12.768;2023-10-09T20:50:00;97380.0;;;
68446;BMP280;35789;48.414;12.768;2023-10-09T20:55:00;97380.0;;;
68446;BMP280;35789;48.414;12.768;2023-10-09T21:00:00;97380.0;;;
68446;BMP280;35789;48.414;12.768;2023-10-09T21:05:00;97380.0;;;
68446;BMP280;35789;48.414;12.768;2023-10-09T21:10:00;97390.0;;;
68446;BMP280;35789;48.414;12.768;2023-10-09T21:15:00;97400.0;;;
68446;BMP280;35789;48.414;12.768;2023-10-09T21:20:00;97410.0;;;
68446;BMP280;35789;48.414;12.768;2023-10-09T21:25:00;97410.0;;;
68446;BMP280;35789;48.414;12.768;2023-10-09T21:30:01;97410.0;;;
68446;BMP280;35789;48.414;12.768;2023-10-09T21:35:00;97420.0;;;
68446;BMP280;35789;48.414;12.768;2023-10-09T21:40:00;97420.0;;;
68446;BMP280;35789;48.414;12.768;2023-10-09T21:45:00;97430.0;;;
68446;BMP280;35789;48.414;12.768;2023-10-09T21:50:00;97420.0;;;
68446;BMP280;35789;48.414;12.768;2023-10-09T21:55:00;97420.0;;;
68446;BMP280;35789;48.414;12.768;2023-10-09T22:00:00;97410.0;;;
68446;BMP280;35789;48.414;12.768;2023-10-09T22:05:00;97410.0;;;
68446;BMP280;35789;48.414;12.768;2023-10-09T22:10:00;97410.0;;;
68446;BMP280;35789;48.414;12.768;2023-10-09T22:15:01;97400.0;;;
68446;BMP280;35789;48.414;12.768;2023-10-09T22:20:00;97400.0;;;
68446;BMP280;35789;48.414;12.768;2023-10-09T22:25:00;97410.0;;;
68446;BMP280;35789;48.414;12.768;2023-10-09T22:30:00;97400.0;;;
68446;BMP280;35789;48.414;12.768;2023-10-09T22:35:00;97410.0;;;
68446;BMP280;35789;48.414;12.768;2023-10-09T22:40:00;97400.0;;;
68446;BMP280;35789;48.414;12.768;2023-10-09T22:45:00;97410.0;;;
68446;BMP280;35789;48.414;12.768;2023-10-09T22:50:00;97410.0;;;
68446;BMP280;35789;48.414;12.768;2023-10-09T22:55:00;97400.0;;;
68446;BMP280;35789;48.414;12.768;2023-10-09T23:00:00;97400.0;;;
68446;BMP280;35789;48.414;12.768;2023-10-09T23:05:00;97400.0;;;
68446;BMP280;35789;48.414;12.768;2023-10-09T23:10:00;97400.0;;;
68446;BMP280;35789;48.414;12.768;2023-10-09T23:15:01;97400.0;;;
68446;BMP280;35789;48.414;12.768;2023-10-09T23:20:00;97400.0;;;
68446;BMP280;35789;48.414;12.768;2023-10-09T23:25:00;97410.0;;;
68446;BMP280;35789;48.414;12.768;2023-10-09T23:30:00;97410.0;;;
68446;BMP280;35789;48.414;12.768;2023-10-09T23:35:00;97420.0;;;
68446;BMP280;35789;48.414;12.768;2023-10-09T23:40:00;97430.0;;;
68446;BMP280;35789;48.414;12.768;2023-10-09T23:45:00;97420.0;;;
68446;BMP280;35789;48.414;12.768;2023-10-09T23:50:00;97420.0;;;
68446;BMP280;35789;48.414;12.768;2023-10-09T23:55:01;97430.0;;;
